createdAt,value
2023-07-23T00:02:13.507Z,0.20
2023-07-23T00:04:40.173Z,0.33
2023-07-23T00:07:06.957Z,0.33
2023-07-23T00:09:33.577Z,0.20
2023-07-23T00:12:00.220Z,0.10
2023-07-23T00:14:27.793Z,0.20
2023-07-23T00:16:54.757Z,0.20
2023-07-23T00:19:21.406Z,0.10
2023-07-23T00:21:51.360Z,0.10
2023-07-23T00:24:20.925Z,0.30
2023-07-23T00:26:47.816Z,0.20
2023-07-23T00:29:14.443Z,0.30
2023-07-23T00:31:41.442Z,0.20
2023-07-23T00:34:08.187Z,0.20
2023-07-23T00:36:34.888Z,0.10
2023-07-23T00:39:01.568Z,0.20
2023-07-23T00:41:28.781Z,0.20
2023-07-23T00:43:56.793Z,0.20
2023-07-23T00:46:23.711Z,0.40
2023-07-23T00:48:50.351Z,0.30
2023-07-23T00:51:17.227Z,0.20
2023-07-23T00:53:45.011Z,0.20
2023-07-23T00:56:11.658Z,0.30
2023-07-23T00:58:38.632Z,0.10
2023-07-23T01:01:05.360Z,0.20
2023-07-23T01:03:32.215Z,2.00
2023-07-23T01:06:01.878Z,0.20
2023-07-23T01:08:28.770Z,0.30
2023-07-23T01:10:55.687Z,0.10
2023-07-23T01:13:22.343Z,0.20
2023-07-23T01:15:49.285Z,0.20
2023-07-23T01:18:16.511Z,0.30
2023-07-23T01:20:43.122Z,0.20
2023-07-23T01:23:09.818Z,0.20
2023-07-23T01:25:36.438Z,0.10
2023-07-23T01:28:03.269Z,0.20
2023-07-23T01:30:29.934Z,0.20
2023-07-23T01:32:57.554Z,0.20
2023-07-23T01:35:25.585Z,0.30
2023-07-23T01:37:52.433Z,0.20
2023-07-23T01:40:19.217Z,0.20
2023-07-23T01:42:46.238Z,0.20
2023-07-23T01:45:14.609Z,0.10
2023-07-23T01:47:41.309Z,0.10
2023-07-23T01:50:08.692Z,0.20
2023-07-23T01:52:35.721Z,0.20
2023-07-23T01:55:02.489Z,0.30
2023-07-23T01:57:29.092Z,0.10
2023-07-23T01:59:55.782Z,0.20
2023-07-23T02:02:22.890Z,4.30
2023-07-23T02:04:49.649Z,0.40
2023-07-23T02:07:16.599Z,0.30
2023-07-23T02:09:43.269Z,0.20
2023-07-23T02:12:09.862Z,0.33
2023-07-23T02:14:36.499Z,0.10
2023-07-23T02:17:03.255Z,0.10
2023-07-23T02:19:29.927Z,0.10
2023-07-23T02:21:56.602Z,0.10
2023-07-23T02:24:23.282Z,0.10
2023-07-23T02:26:49.958Z,0.20
2023-07-23T02:29:16.640Z,0.30
2023-07-23T02:31:43.254Z,0.10
2023-07-23T02:34:09.859Z,0.10
2023-07-23T02:36:36.523Z,0.30
2023-07-23T02:39:04.029Z,0.20
2023-07-23T02:41:30.957Z,0.20
2023-07-23T02:43:58.584Z,0.10
2023-07-23T02:46:25.201Z,0.27
2023-07-23T02:48:51.827Z,0.30
2023-07-23T02:51:19.697Z,0.20
2023-07-23T02:53:46.350Z,0.20
2023-07-23T02:56:12.997Z,0.10
2023-07-23T02:58:39.662Z,0.20
2023-07-23T03:01:06.283Z,0.20
2023-07-23T03:03:33.015Z,0.10
2023-07-23T03:05:59.713Z,0.20
2023-07-23T03:08:26.349Z,0.67
2023-07-23T03:10:53.043Z,0.20
2023-07-23T03:13:19.639Z,0.83
2023-07-23T03:15:46.692Z,0.30
2023-07-23T03:18:13.278Z,0.20
2023-07-23T03:20:39.979Z,0.20
2023-07-23T03:23:06.628Z,0.30
2023-07-23T03:25:33.312Z,0.20
2023-07-23T03:28:00.701Z,0.20
2023-07-23T03:30:28.162Z,0.20
2023-07-23T03:32:55.327Z,0.30
2023-07-23T03:35:22.466Z,0.50
2023-07-23T03:37:49.518Z,0.20
2023-07-23T03:40:16.265Z,0.50
2023-07-23T03:42:42.903Z,0.20
2023-07-23T03:45:10.012Z,0.20
2023-07-23T03:47:36.779Z,11.83
2023-07-23T03:50:03.648Z,11.73
2023-07-23T03:52:30.313Z,12.50
2023-07-23T03:54:57.040Z,12.23
2023-07-23T03:57:23.634Z,11.80
2023-07-23T03:59:50.434Z,12.60
2023-07-23T04:02:17.166Z,12.23
2023-07-23T04:04:43.965Z,11.67
2023-07-23T04:07:10.674Z,10.67
2023-07-23T04:09:38.318Z,12.50
2023-07-23T04:12:05.396Z,11.48
2023-07-23T04:14:32.968Z,11.30
2023-07-23T04:16:59.538Z,12.07
2023-07-23T04:19:26.127Z,11.38
2023-07-23T04:21:52.827Z,9.75
2023-07-23T04:24:19.460Z,8.48
2023-07-23T04:26:46.188Z,9.77
2023-07-23T04:29:12.885Z,9.60
2023-07-23T04:31:39.624Z,8.82
2023-07-23T04:34:06.301Z,8.50
2023-07-23T04:36:33.116Z,8.18
2023-07-23T04:39:01.873Z,8.45
2023-07-23T04:41:28.946Z,9.23
2023-07-23T04:43:56.053Z,8.52
2023-07-23T04:46:22.721Z,9.15
2023-07-23T04:48:49.389Z,9.27
2023-07-23T04:51:16.048Z,9.65
2023-07-23T04:53:42.706Z,9.32
2023-07-23T04:56:09.418Z,9.93
2023-07-23T04:58:36.095Z,9.77
2023-07-23T05:01:11.467Z,8.82
2023-07-23T05:03:39.027Z,9.48
2023-07-23T05:06:06.734Z,9.52
2023-07-23T05:08:34.613Z,9.20
2023-07-23T05:11:05.585Z,9.45
2023-07-23T05:13:36.482Z,9.15
2023-07-23T05:16:05.953Z,8.90
2023-07-23T05:18:35.484Z,9.05
2023-07-23T05:21:05.686Z,9.95
2023-07-23T05:23:32.993Z,8.60
2023-07-23T05:25:59.849Z,9.50
2023-07-23T05:28:26.529Z,9.25
2023-07-23T05:31:00.005Z,10.07
2023-07-23T05:33:27.069Z,9.70
2023-07-23T05:35:54.086Z,11.52
2023-07-23T05:38:20.730Z,12.05
2023-07-23T05:41:13.765Z,13.50
2023-07-23T05:43:40.421Z,12.90
2023-07-23T05:46:07.139Z,11.70
2023-07-23T05:48:33.991Z,11.40
2023-07-23T05:51:00.842Z,10.18
2023-07-23T05:53:27.606Z,9.85
2023-07-23T05:55:54.411Z,10.77
2023-07-23T05:58:21.081Z,11.20
2023-07-23T06:00:47.793Z,9.65
2023-07-23T06:03:14.662Z,9.10
2023-07-23T06:05:41.392Z,8.65
2023-07-23T06:08:08.001Z,9.43
2023-07-23T06:10:34.822Z,8.95
2023-07-23T06:13:01.510Z,8.40
2023-07-23T06:15:28.189Z,8.00
2023-07-23T06:17:54.907Z,8.63
2023-07-23T06:20:21.591Z,8.70
2023-07-23T06:22:48.185Z,8.55
2023-07-23T06:25:15.049Z,6.95
2023-07-23T06:27:41.726Z,7.30
2023-07-23T06:30:08.803Z,7.38
2023-07-23T06:32:35.552Z,7.03
2023-07-23T06:35:05.543Z,7.18
2023-07-23T06:37:32.943Z,7.38
2023-07-23T06:39:59.638Z,8.13
2023-07-23T06:42:26.301Z,7.57
2023-07-23T06:44:53.030Z,7.82
2023-07-23T06:47:21.193Z,7.35
2023-07-23T06:49:47.911Z,7.72
2023-07-23T06:52:14.528Z,7.43
2023-07-23T06:54:43.989Z,7.38
2023-07-23T06:57:10.811Z,7.43
2023-07-23T06:59:37.468Z,7.30
2023-07-23T07:02:04.325Z,7.82
2023-07-23T07:04:31.030Z,7.05
2023-07-23T07:06:57.646Z,7.65
2023-07-23T07:09:24.318Z,7.18
2023-07-23T07:11:52.184Z,7.47
2023-07-23T07:14:18.846Z,7.18
2023-07-23T07:16:45.529Z,7.30
2023-07-23T07:19:12.194Z,7.35
2023-07-23T07:21:38.852Z,6.93
2023-07-23T07:24:06.332Z,6.95
2023-07-23T07:26:33.275Z,6.93
2023-07-23T07:28:59.953Z,6.25
2023-07-23T07:31:27.079Z,6.03
2023-07-23T07:33:54.011Z,6.18
2023-07-23T07:36:20.690Z,6.50
2023-07-23T07:38:47.313Z,5.82
2023-07-23T07:41:13.941Z,5.75
2023-07-23T07:43:40.585Z,5.70
2023-07-23T07:46:09.360Z,6.18
2023-07-23T07:48:37.126Z,6.13
2023-07-23T07:51:05.752Z,6.07
2023-07-23T07:53:34.253Z,6.30
2023-07-23T07:56:01.951Z,5.80
2023-07-23T07:58:29.184Z,5.65
2023-07-23T08:00:57.876Z,4.85
2023-07-23T08:03:26.701Z,5.53
2023-07-23T08:05:54.635Z,4.63
2023-07-23T08:08:25.074Z,4.50
2023-07-23T08:10:56.368Z,3.90
2023-07-23T08:13:23.769Z,4.50
2023-07-23T08:15:52.280Z,4.40
2023-07-23T08:18:20.895Z,4.63
2023-07-23T08:20:48.066Z,3.90
2023-07-23T08:23:15.128Z,4.00
2023-07-23T08:25:44.529Z,4.20
2023-07-23T08:28:13.263Z,4.22
2023-07-23T08:30:40.202Z,3.92
2023-07-23T08:33:08.091Z,3.92
2023-07-23T08:35:35.085Z,3.60
2023-07-23T08:38:01.995Z,3.42
2023-07-23T08:40:29.137Z,3.78
2023-07-23T08:43:10.428Z,3.85
2023-07-23T08:45:56.328Z,3.33
2023-07-23T08:48:23.359Z,4.05
2023-07-23T08:50:51.656Z,3.67
2023-07-23T08:53:19.176Z,3.60
2023-07-23T08:55:46.924Z,3.30
2023-07-23T08:58:17.673Z,3.58
2023-07-23T09:00:45.764Z,3.33
2023-07-23T09:03:13.782Z,3.17
2023-07-23T09:05:41.188Z,3.60
2023-07-23T09:08:08.947Z,3.80
2023-07-23T09:10:35.711Z,3.83
2023-07-23T09:13:15.679Z,3.55
2023-07-23T09:15:44.304Z,3.28
2023-07-23T09:18:10.918Z,2.95
2023-07-23T09:20:37.568Z,3.65
2023-07-23T09:23:08.153Z,3.70
2023-07-23T09:25:35.102Z,3.55
2023-07-23T09:28:01.805Z,3.30
2023-07-23T09:30:29.223Z,3.00
2023-07-23T09:33:01.271Z,3.70
2023-07-23T09:35:31.782Z,3.47
2023-07-23T09:37:59.559Z,3.30
2023-07-23T09:40:52.655Z,3.63
2023-07-23T09:43:22.380Z,3.70
2023-07-23T09:45:49.221Z,3.05
2023-07-23T09:48:19.293Z,3.90
2023-07-23T09:50:46.265Z,3.55
2023-07-23T09:53:18.892Z,3.90
2023-07-23T09:55:46.042Z,3.58
2023-07-23T09:58:13.058Z,3.60
2023-07-23T10:00:40.424Z,3.70
2023-07-23T10:03:08.931Z,3.90
2023-07-23T10:05:36.848Z,3.80
2023-07-23T10:08:07.407Z,3.40
2023-07-23T10:10:34.076Z,3.88
2023-07-23T10:13:00.837Z,3.47
2023-07-23T10:15:28.610Z,3.42
2023-07-23T10:18:01.663Z,3.33
2023-07-23T10:20:29.938Z,3.63
2023-07-23T10:22:56.947Z,3.65
2023-07-23T10:25:39.346Z,3.22
2023-07-23T10:28:09.696Z,3.40
2023-07-23T10:30:39.989Z,4.30
2023-07-23T10:33:13.392Z,3.33
2023-07-23T10:35:56.128Z,3.42
2023-07-23T10:38:27.585Z,3.80
2023-07-23T10:40:54.218Z,3.35
2023-07-23T10:43:20.983Z,2.85
2023-07-23T10:46:07.392Z,3.80
2023-07-23T10:48:41.783Z,3.67
2023-07-23T10:51:10.309Z,3.60
2023-07-23T10:53:41.996Z,3.47
2023-07-23T10:56:35.829Z,3.70
2023-07-23T10:59:07.232Z,4.32
2023-07-23T11:01:39.365Z,4.10
2023-07-23T11:04:09.919Z,3.70
2023-07-23T11:06:36.676Z,3.80
2023-07-23T11:09:11.367Z,4.00
2023-07-23T11:11:42.520Z,3.55
2023-07-23T11:14:20.533Z,4.05
2023-07-23T11:16:48.844Z,3.70
2023-07-23T11:19:17.824Z,4.25
2023-07-23T11:21:46.123Z,3.65
2023-07-23T11:24:12.981Z,3.92
2023-07-23T11:26:39.702Z,3.53
2023-07-23T11:29:06.383Z,3.60
2023-07-23T11:31:35.027Z,3.67
2023-07-23T11:34:02.154Z,3.58
2023-07-23T11:36:29.233Z,3.75
2023-07-23T11:38:56.361Z,3.42
2023-07-23T11:41:38.400Z,3.67
2023-07-23T11:44:06.139Z,3.90
2023-07-23T11:46:38.361Z,3.65
2023-07-23T11:49:11.054Z,4.03
2023-07-23T11:51:38.603Z,3.80
2023-07-23T11:54:08.943Z,4.30
2023-07-23T11:56:43.966Z,4.18
2023-07-23T11:59:12.434Z,4.53
2023-07-23T12:01:40.031Z,4.30
2023-07-23T12:04:08.310Z,4.40
2023-07-23T12:06:39.475Z,4.28
2023-07-23T12:09:11.280Z,4.35
2023-07-23T12:11:39.746Z,4.53
2023-07-23T12:14:08.077Z,4.53
2023-07-23T12:16:48.929Z,5.20
2023-07-23T12:19:18.099Z,4.15
2023-07-23T12:21:49.211Z,4.70
2023-07-23T12:24:23.649Z,4.32
2023-07-23T12:27:01.258Z,4.38
2023-07-23T12:29:29.306Z,4.43
2023-07-23T12:32:15.667Z,3.90
2023-07-23T12:34:44.294Z,4.30
2023-07-23T12:37:11.243Z,4.47
2023-07-23T12:39:38.187Z,4.68
2023-07-23T12:42:05.299Z,4.28
2023-07-23T12:44:32.003Z,4.90
2023-07-23T12:46:58.730Z,4.70
2023-07-23T12:49:25.408Z,4.57
2023-07-23T12:51:52.487Z,4.45
2023-07-23T12:54:19.179Z,4.68
2023-07-23T12:56:45.904Z,4.57
2023-07-23T12:59:13.355Z,4.90
2023-07-23T13:01:40.112Z,4.97
2023-07-23T13:04:06.856Z,4.82
2023-07-23T13:06:33.483Z,4.40
2023-07-23T13:09:00.169Z,4.57
2023-07-23T13:11:26.798Z,4.35
2023-07-23T13:13:53.393Z,4.50
2023-07-23T13:16:25.179Z,4.22
2023-07-23T13:18:52.012Z,5.07
2023-07-23T13:21:18.652Z,4.47
2023-07-23T13:23:45.291Z,4.70
2023-07-23T13:26:12.285Z,5.03
2023-07-23T13:28:38.948Z,4.22
2023-07-23T13:31:05.695Z,4.50
2023-07-23T13:33:32.393Z,4.35
2023-07-23T13:35:59.039Z,4.55
2023-07-23T13:38:25.812Z,5.00
2023-07-23T13:40:52.566Z,4.88
2023-07-23T13:43:19.196Z,4.65
2023-07-23T13:45:46.796Z,4.03
2023-07-23T13:48:13.546Z,4.95
2023-07-23T13:50:51.168Z,4.35
2023-07-23T13:53:19.594Z,5.13
2023-07-23T13:55:46.386Z,4.97
2023-07-23T13:58:13.029Z,4.70
2023-07-23T14:00:39.761Z,5.07
2023-07-23T14:03:06.582Z,5.32
2023-07-23T14:05:34.074Z,5.20
2023-07-23T14:08:00.913Z,5.20
2023-07-23T14:10:27.636Z,5.05
2023-07-23T14:12:54.346Z,5.72
2023-07-23T14:15:21.065Z,5.47
2023-07-23T14:17:47.833Z,5.65
2023-07-23T14:20:14.629Z,6.15
2023-07-23T14:22:41.441Z,5.65
2023-07-23T14:25:08.416Z,5.72
2023-07-23T14:27:35.045Z,5.63
2023-07-23T14:30:01.688Z,5.72
2023-07-23T14:32:28.349Z,6.00
2023-07-23T14:34:54.963Z,6.38
2023-07-23T14:37:22.461Z,6.18
2023-07-23T14:39:49.541Z,6.95
2023-07-23T14:42:16.193Z,6.07
2023-07-23T14:44:42.890Z,5.68
2023-07-23T14:47:09.570Z,6.13
2023-07-23T14:49:37.773Z,5.60
2023-07-23T14:52:05.594Z,5.80
2023-07-23T14:54:32.340Z,5.80
2023-07-23T14:56:59.137Z,6.47
2023-07-23T14:59:25.818Z,6.15
2023-07-23T15:01:52.454Z,6.38
2023-07-23T15:04:19.239Z,6.50
2023-07-23T15:06:48.914Z,6.75
2023-07-23T15:09:16.412Z,6.60
2023-07-23T15:11:43.333Z,7.22
2023-07-23T15:14:10.288Z,7.88
2023-07-23T15:16:37.200Z,7.53
2023-07-23T15:19:04.152Z,7.75
2023-07-23T15:21:34.802Z,7.15
2023-07-23T15:24:03.595Z,7.43
2023-07-23T15:26:32.350Z,7.03
2023-07-23T15:29:00.192Z,7.47
2023-07-23T15:31:27.544Z,7.03
2023-07-23T15:33:54.741Z,7.15
2023-07-23T15:36:21.752Z,7.20
2023-07-23T15:38:49.541Z,7.00
2023-07-23T15:41:16.390Z,6.55
2023-07-23T15:43:43.087Z,6.28
2023-07-23T15:46:09.779Z,6.05
2023-07-23T15:48:36.887Z,7.10
2023-07-23T15:51:04.110Z,5.72
2023-07-23T15:53:30.735Z,5.95
2023-07-23T15:55:57.477Z,6.03
2023-07-23T15:58:24.135Z,5.85
2023-07-23T16:00:52.292Z,6.28
2023-07-23T16:03:19.089Z,4.90
2023-07-23T16:05:45.734Z,4.97
2023-07-23T16:08:12.345Z,4.60
2023-07-23T16:10:39.021Z,4.75
2023-07-23T16:13:05.623Z,4.75
2023-07-23T16:15:34.274Z,5.20
2023-07-23T16:18:01.029Z,4.63
2023-07-23T16:20:27.714Z,4.53
2023-07-23T16:22:54.344Z,4.80
2023-07-23T16:25:21.041Z,4.35
2023-07-23T16:27:47.682Z,4.40
2023-07-23T16:30:14.300Z,4.40
2023-07-23T16:32:41.520Z,5.05
2023-07-23T16:35:08.874Z,4.80
2023-07-23T16:37:40.861Z,4.35
2023-07-23T16:40:11.810Z,4.90
2023-07-23T16:42:42.653Z,4.00
2023-07-23T16:45:10.505Z,4.60
2023-07-23T16:47:37.269Z,4.78
2023-07-23T16:50:04.616Z,4.63
2023-07-23T16:52:31.256Z,4.20
2023-07-23T16:54:58.860Z,4.18
2023-07-23T16:57:25.640Z,4.90
2023-07-23T16:59:52.440Z,4.65
2023-07-23T17:02:19.382Z,4.40
2023-07-23T17:04:46.049Z,5.63
2023-07-23T17:07:13.149Z,4.40
2023-07-23T17:09:40.505Z,3.97
2023-07-23T17:12:07.675Z,5.00
2023-07-23T17:14:34.429Z,4.75
2023-07-23T17:17:03.004Z,4.60
2023-07-23T17:19:33.411Z,3.97
2023-07-23T17:22:00.567Z,4.38
2023-07-23T17:24:27.326Z,4.40
2023-07-23T17:26:54.061Z,4.20
2023-07-23T17:29:20.936Z,4.70
2023-07-23T17:31:47.591Z,4.40
2023-07-23T17:34:14.276Z,4.78
2023-07-23T17:36:40.916Z,5.05
2023-07-23T17:39:07.584Z,4.97
2023-07-23T17:41:34.243Z,5.40
2023-07-23T17:44:00.846Z,5.45
2023-07-23T17:46:28.243Z,5.03
2023-07-23T17:48:55.133Z,5.65
2023-07-23T17:51:21.736Z,5.78
2023-07-23T17:53:48.365Z,6.05
2023-07-23T17:56:14.995Z,6.45
2023-07-23T17:58:42.953Z,5.65
2023-07-23T18:01:23.752Z,5.55
2023-07-23T18:03:56.243Z,5.97
2023-07-23T18:06:23.202Z,5.60
2023-07-23T18:08:49.814Z,5.43
2023-07-23T18:11:16.479Z,5.40
2023-07-23T18:13:43.128Z,5.68
2023-07-23T18:16:10.006Z,6.15
2023-07-23T18:18:36.758Z,5.20
2023-07-23T18:21:03.421Z,9.68
2023-07-23T18:23:31.190Z,5.50
2023-07-23T18:26:05.050Z,5.03
2023-07-23T18:28:32.966Z,5.40
2023-07-23T18:31:07.010Z,5.53
2023-07-23T18:33:36.973Z,4.80
2023-07-23T18:36:03.706Z,4.85
2023-07-23T18:38:30.364Z,4.28
2023-07-23T18:40:57.579Z,4.32
2023-07-23T18:43:24.562Z,4.20
2023-07-23T18:45:51.396Z,4.78
2023-07-23T18:48:20.964Z,4.65
2023-07-23T18:50:48.713Z,4.30
2023-07-23T18:53:15.398Z,4.35
2023-07-23T18:55:43.042Z,4.97
2023-07-23T18:58:10.015Z,4.78
2023-07-23T19:00:36.711Z,4.07
2023-07-23T19:03:04.440Z,4.53
2023-07-23T19:05:31.377Z,5.05
2023-07-23T19:07:58.043Z,4.50
2023-07-23T19:10:24.892Z,5.00
2023-07-23T19:12:51.542Z,5.13
2023-07-23T19:15:18.233Z,4.60
2023-07-23T19:17:44.924Z,4.82
2023-07-23T19:20:11.736Z,5.00
2023-07-23T19:22:38.966Z,4.40
2023-07-23T19:25:05.976Z,4.82
2023-07-23T19:27:32.876Z,5.03
2023-07-23T19:29:59.609Z,5.10
2023-07-23T19:32:26.233Z,4.60
2023-07-23T19:34:52.900Z,4.70
2023-07-23T19:37:19.994Z,4.45
2023-07-23T19:39:46.717Z,4.75
2023-07-23T19:42:14.200Z,5.20
2023-07-23T19:44:40.840Z,4.80
2023-07-23T19:47:07.482Z,4.60
2023-07-23T19:49:34.177Z,4.70
2023-07-23T19:52:00.797Z,4.95
2023-07-23T19:54:27.978Z,4.63
2023-07-23T19:56:54.670Z,4.85
2023-07-23T19:59:21.354Z,5.40
2023-07-23T20:01:48.010Z,4.97
2023-07-23T20:04:14.644Z,5.88
2023-07-23T20:06:41.264Z,6.45
2023-07-23T20:09:08.401Z,4.88
2023-07-23T20:11:35.163Z,5.05
2023-07-23T20:14:02.527Z,4.90
2023-07-23T20:16:29.566Z,5.00
2023-07-23T20:18:56.623Z,5.57
2023-07-23T20:21:33.609Z,5.28
2023-07-23T20:24:04.732Z,5.15
2023-07-23T20:26:31.667Z,5.38
2023-07-23T20:28:58.737Z,5.07
2023-07-23T20:31:25.785Z,5.70
2023-07-23T20:33:52.780Z,5.63
2023-07-23T20:36:19.756Z,4.72
2023-07-23T20:38:46.610Z,5.60
2023-07-23T20:41:13.480Z,5.03
2023-07-23T20:43:40.106Z,5.10
2023-07-23T20:46:06.827Z,5.00
2023-07-23T20:48:33.454Z,5.03
2023-07-23T20:51:00.094Z,5.47
2023-07-23T20:53:28.258Z,5.32
2023-07-23T20:55:54.895Z,4.55
2023-07-23T20:58:21.569Z,5.68
2023-07-23T21:00:48.248Z,5.47
2023-07-23T21:03:14.843Z,5.88
2023-07-23T21:05:41.554Z,5.40
2023-07-23T21:08:08.268Z,5.13
2023-07-23T21:10:34.933Z,5.35
2023-07-23T21:13:01.628Z,5.15
2023-07-23T21:15:32.530Z,5.20
2023-07-23T21:17:59.782Z,4.63
2023-07-23T21:20:26.613Z,4.40
2023-07-23T21:22:53.319Z,4.83
2023-07-23T21:25:20.664Z,4.93
2023-07-23T21:27:47.456Z,4.67
2023-07-23T21:30:14.081Z,4.80
2023-07-23T21:32:40.805Z,5.23
2023-07-23T21:35:07.838Z,4.90
2023-07-23T21:37:34.532Z,5.13
2023-07-23T21:40:01.169Z,5.07
2023-07-23T21:42:28.100Z,4.90
2023-07-23T21:44:57.531Z,5.20
2023-07-23T21:47:28.055Z,5.37
2023-07-23T21:49:54.858Z,4.77
2023-07-23T21:52:22.156Z,4.70
2023-07-23T21:54:49.177Z,4.90
2023-07-23T21:57:15.921Z,5.60
2023-07-23T21:59:42.633Z,5.30
2023-07-23T22:02:09.303Z,5.60
2023-07-23T22:04:36.189Z,4.77
2023-07-23T22:07:02.898Z,4.40
2023-07-23T22:09:29.573Z,4.87
2023-07-23T22:11:56.225Z,5.47
2023-07-23T22:14:22.845Z,4.87
2023-07-23T22:16:49.422Z,5.17
2023-07-23T22:19:16.314Z,4.83
2023-07-23T22:21:42.927Z,4.90
2023-07-23T22:24:09.611Z,5.07
2023-07-23T22:26:36.307Z,5.20
2023-07-23T22:29:02.988Z,4.83
2023-07-23T22:31:29.583Z,5.03
2023-07-23T22:33:59.855Z,4.80
2023-07-23T22:36:27.252Z,5.50
2023-07-23T22:38:54.267Z,5.20
2023-07-23T22:41:20.891Z,5.70
2023-07-23T22:43:55.987Z,5.30
2023-07-23T22:46:25.410Z,5.43
2023-07-23T22:48:52.969Z,5.03
2023-07-23T22:51:19.677Z,5.10
2023-07-23T22:53:46.342Z,5.03
2023-07-23T22:56:13.685Z,5.23
2023-07-23T22:58:42.430Z,5.23
2023-07-23T23:01:12.314Z,5.23
2023-07-23T23:03:39.153Z,5.27
2023-07-23T23:06:05.850Z,5.53
2023-07-23T23:08:32.484Z,6.57
2023-07-23T23:10:59.107Z,6.47
2023-07-23T23:13:25.844Z,7.07
2023-07-23T23:15:52.809Z,7.30
2023-07-23T23:18:20.142Z,7.37
2023-07-23T23:20:46.877Z,7.73
2023-07-23T23:23:15.035Z,8.07
2023-07-23T23:25:41.677Z,7.53
2023-07-23T23:28:08.327Z,7.57
2023-07-23T23:30:35.004Z,7.50
2023-07-23T23:33:01.658Z,7.43
2023-07-23T23:35:28.359Z,7.03
2023-07-23T23:37:54.974Z,7.23
2023-07-23T23:40:21.699Z,7.60
2023-07-23T23:42:48.310Z,7.80
2023-07-23T23:45:15.000Z,7.47
2023-07-23T23:47:41.776Z,8.33
2023-07-23T23:50:09.174Z,8.10
2023-07-23T23:52:35.972Z,7.50
2023-07-23T23:55:02.651Z,8.00
2023-07-23T23:57:29.536Z,8.00
2023-07-23T23:59:56.128Z,7.90
